createdAt,value
2023-01-23T00:01:20.746Z,84.51
2023-01-23T00:07:40.577Z,84.21
2023-01-23T00:14:03.563Z,84.02
2023-01-23T00:20:23.747Z,84.54
2023-01-23T00:26:46.614Z,84.16
2023-01-23T00:33:06.613Z,84.03
2023-01-23T00:39:29.760Z,85.02
2023-01-23T00:45:49.623Z,84.77
2023-01-23T00:52:12.626Z,85.24
2023-01-23T00:58:32.759Z,85.17
2023-01-23T01:04:55.644Z,84.86
2023-01-23T01:11:15.647Z,84.4
2023-01-23T01:17:38.796Z,85.03
2023-01-23T01:23:58.683Z,84.75
2023-01-23T01:30:21.801Z,84.89
2023-01-23T01:36:41.710Z,84.87
2023-01-23T01:43:04.597Z,85.02
2023-01-23T01:49:24.675Z,85.12
2023-01-23T01:55:47.690Z,84.76
2023-01-23T02:02:07.658Z,84.49
2023-01-23T02:08:30.597Z,84.26
2023-01-23T02:14:50.761Z,84.2
2023-01-23T02:21:13.646Z,83.69
2023-01-23T02:27:33.672Z,83.59
2023-01-23T02:33:56.726Z,83.61
2023-01-23T02:40:16.702Z,83.52
2023-01-23T02:46:39.572Z,83.17
2023-01-23T02:52:59.766Z,83.25
2023-01-23T02:59:22.612Z,83.26
2023-01-23T03:05:42.583Z,83.14
2023-01-23T03:12:05.668Z,83.53
2023-01-23T03:18:25.592Z,83.42
2023-01-23T03:24:48.643Z,83.33
2023-01-23T03:31:08.754Z,83.8
2023-01-23T03:37:31.569Z,82.95
2023-01-23T03:43:51.605Z,83.41
2023-01-23T03:50:14.688Z,83.53
2023-01-23T03:56:34.586Z,83.47
2023-01-23T04:02:57.635Z,83.12
2023-01-23T04:26:03.198Z,82.66
2023-01-23T04:32:22.594Z,82.99
2023-01-23T04:38:45.618Z,83.45
2023-01-23T04:45:05.728Z,83.79
2023-01-23T04:51:28.657Z,84.11
2023-01-23T04:57:48.580Z,83.46
2023-01-23T05:04:11.724Z,83.71
2023-01-23T05:10:31.584Z,83.82
2023-01-23T05:16:54.588Z,83.83
2023-01-23T05:23:14.741Z,84.71
2023-01-23T05:29:37.603Z,84.95
2023-01-23T05:35:57.614Z,84.9
2023-01-23T05:42:20.724Z,85.31
2023-01-23T05:48:40.654Z,85.55
2023-01-23T05:55:03.660Z,85.14
2023-01-23T06:01:23.755Z,85.09
2023-01-23T06:07:46.639Z,84.33
2023-01-23T06:14:06.585Z,84.74
2023-01-23T06:20:29.693Z,84.6
2023-01-23T06:26:49.589Z,84.75
2023-01-23T06:33:12.616Z,84.73
2023-01-23T06:39:32.729Z,84.21
2023-01-23T06:45:55.626Z,84.1
2023-01-23T06:52:15.600Z,83.97
2023-01-23T06:58:38.788Z,83.53
2023-01-23T07:04:58.668Z,83.58
2023-01-23T07:11:21.667Z,83.46
2023-01-23T07:17:41.703Z,83.28
2023-01-23T07:24:04.618Z,83.39
2023-01-23T07:30:24.594Z,83.22
2023-01-23T07:36:47.758Z,82.6
2023-01-23T07:43:07.674Z,82.28
2023-01-23T07:49:30.678Z,82.62
2023-01-23T07:55:50.591Z,82.61
2023-01-23T08:02:13.691Z,82.48
2023-01-23T08:08:33.579Z,82.56
2023-01-23T08:14:56.711Z,82.18
2023-01-23T08:21:16.602Z,82.14
2023-01-23T08:27:39.590Z,82.34
2023-01-23T08:33:59.635Z,82.32
2023-01-23T08:40:22.734Z,82.19
2023-01-23T08:46:42.597Z,81.73
2023-01-23T08:53:05.702Z,81.36
2023-01-23T08:59:25.583Z,81.23
2023-01-23T09:05:48.591Z,81.49
2023-01-23T09:30:32.729Z,80.58
2023-01-23T09:36:52.568Z,80.14
2023-01-23T09:43:15.586Z,79.62
2023-01-23T09:49:35.624Z,78.71
2023-01-23T09:55:58.598Z,78.97
2023-01-23T10:02:18.655Z,78.51
2023-01-23T10:08:41.726Z,78.13
2023-01-23T10:15:01.603Z,77.28
2023-01-23T10:21:24.623Z,77.4
2023-01-23T10:27:44.697Z,76.56
2023-01-23T10:34:07.618Z,75.6
2023-01-23T10:40:27.607Z,75.03
2023-01-23T10:46:51.698Z,75.2
2023-01-23T10:53:10.577Z,74.47
2023-01-23T10:59:33.657Z,73.87
2023-01-23T11:05:53.742Z,73.73
2023-01-23T11:12:16.575Z,73.1
2023-01-23T11:18:36.737Z,73.29
2023-01-23T11:24:59.868Z,72.44
2023-01-23T11:31:19.776Z,73.04
2023-01-23T11:37:42.611Z,71.54
2023-01-23T11:44:03.778Z,72.23
2023-01-23T11:50:25.920Z,71.32
2023-01-23T11:56:45.616Z,71.17
2023-01-23T12:03:08.760Z,70.79
2023-01-23T12:09:28.576Z,70.78
2023-01-23T12:15:51.614Z,70.65
2023-01-23T12:22:11.767Z,71.37
2023-01-23T12:28:34.609Z,71.33
2023-01-23T12:34:54.600Z,71.25
2023-01-23T12:41:17.730Z,71
2023-01-23T12:47:37.608Z,70.67
2023-01-23T12:54:00.610Z,70.9
2023-01-23T13:00:21.010Z,70.48
2023-01-23T13:06:44.280Z,71.2
2023-01-23T13:13:03.629Z,71.24
2023-01-23T13:19:26.713Z,69.79
2023-01-23T13:25:46.588Z,70.02
2023-01-23T13:32:09.747Z,70.46
2023-01-23T13:38:29.795Z,70.16
2023-01-23T13:44:52.876Z,70.28
2023-01-23T13:51:12.578Z,70.6
2023-01-23T13:57:35.690Z,71.42
2023-01-23T14:03:55.633Z,70.45
2023-01-23T14:10:18.631Z,70.62
2023-01-23T14:16:38.727Z,71.06
2023-01-23T14:33:32.609Z,70.6
2023-01-23T14:39:53.642Z,71.33
2023-01-23T14:46:15.567Z,71.44
2023-01-23T14:52:35.721Z,71.38
2023-01-23T14:58:58.574Z,71.55
2023-01-23T15:05:18.672Z,71.52
2023-01-23T15:11:41.715Z,72
2023-01-23T15:18:01.662Z,71.35
2023-01-23T15:24:24.581Z,72.03
2023-01-23T15:30:44.753Z,72.33
2023-01-23T15:37:07.817Z,72.49
2023-01-23T15:43:27.809Z,72.63
2023-01-23T15:49:50.876Z,72.82
2023-01-23T15:56:10.635Z,73.21
2023-01-23T16:02:35.716Z,73.21
2023-01-23T16:09:00.698Z,73.33
2023-01-23T16:15:16.634Z,73.67
2023-01-23T16:21:36.750Z,73.95
2023-01-23T16:27:59.740Z,74.05
2023-01-23T16:34:19.591Z,73.84
2023-01-23T16:40:42.622Z,73.95
2023-01-23T16:47:03.053Z,74.44
2023-01-23T16:53:25.738Z,74.49
2023-01-23T16:59:45.605Z,74.56
2023-01-23T17:06:08.732Z,74.73
2023-01-23T17:12:28.632Z,74.93
2023-01-23T17:18:51.596Z,74.8
2023-01-23T17:25:11.744Z,75.11
2023-01-23T17:31:34.713Z,74.26
2023-01-23T17:37:54.617Z,74.11
2023-01-23T17:44:17.716Z,74.31
2023-01-23T17:50:37.572Z,73.98
2023-01-23T17:57:00.611Z,73.81
2023-01-23T18:03:20.709Z,73.82
2023-01-23T18:09:43.575Z,73.91
2023-01-23T18:16:03.592Z,74.02
2023-01-23T18:22:26.685Z,74.13
2023-01-23T18:28:46.662Z,74.15
2023-01-23T18:35:09.630Z,74.06
2023-01-23T18:41:29.780Z,74.31
2023-01-23T18:47:52.598Z,74.39
2023-01-23T18:54:12.618Z,74.52
2023-01-23T19:00:35.816Z,74.56
2023-01-23T19:06:55.599Z,74.89
2023-01-23T19:13:18.625Z,75.32
2023-01-23T19:37:00.225Z,75.5
2023-01-23T19:43:19.587Z,75.22
2023-01-23T19:49:42.617Z,75.28
2023-01-23T19:56:02.714Z,75.24
2023-01-23T20:02:25.672Z,75.46
2023-01-23T20:08:45.684Z,75.39
2023-01-23T20:15:08.686Z,75.59
2023-01-23T20:21:28.610Z,75.14
2023-01-23T20:27:51.635Z,75.49
2023-01-23T20:34:11.787Z,75.92
2023-01-23T20:40:34.619Z,75.58
2023-01-23T20:46:54.611Z,75.68
2023-01-23T20:53:17.705Z,75.77
2023-01-23T20:59:37.585Z,76.08
2023-01-23T21:06:00.634Z,75.76
2023-01-23T21:12:20.777Z,76.33
2023-01-23T21:18:43.667Z,76
2023-01-23T21:25:03.580Z,76.6
2023-01-23T21:31:26.848Z,76.31
2023-01-23T21:37:46.623Z,76.61
2023-01-23T21:44:09.607Z,76.47
2023-01-23T21:50:29.754Z,75.96
2023-01-23T21:56:52.639Z,76.24
2023-01-23T22:03:12.639Z,76.24
2023-01-23T22:09:35.717Z,76.31
2023-01-23T22:15:55.696Z,77.12
2023-01-23T22:22:18.618Z,77
2023-01-23T22:28:38.728Z,76.61
2023-01-23T22:35:01.585Z,76.63
2023-01-23T22:41:21.644Z,76.96
2023-01-23T22:47:44.745Z,76.97
2023-01-23T22:54:04.620Z,77.15
2023-01-23T23:19:38.713Z,76.69
2023-01-23T23:25:58.592Z,76.69
2023-01-23T23:32:21.641Z,76.67
2023-01-23T23:38:42.258Z,76.62
2023-01-23T23:45:04.600Z,76.4
2023-01-23T23:51:24.568Z,76.42
2023-01-23T23:57:47.786Z,76.17
